createdAt,value
2022-08-10T00:01:51.503Z,7.43
2022-08-10T00:04:23.454Z,7.05
2022-08-10T00:06:55.664Z,7.13
2022-08-10T00:09:24.185Z,7.55
2022-08-10T00:11:52.317Z,7.07
2022-08-10T00:14:20.359Z,6.72
2022-08-10T00:16:47.835Z,6.82
2022-08-10T00:19:18.246Z,6.82
2022-08-10T00:21:46.618Z,7.47
2022-08-10T00:24:13.944Z,7.35
2022-08-10T00:27:52.460Z,7.57
2022-08-10T00:29:39.135Z,7.82
2022-08-10T00:32:06.430Z,8.35
2022-08-10T00:34:35.053Z,7.97
2022-08-10T00:37:11.225Z,7.38
2022-08-10T00:39:39.957Z,7.60
2022-08-10T00:42:11.518Z,6.45
2022-08-10T00:44:45.662Z,7.38
2022-08-10T00:47:22.682Z,7.72
2022-08-10T00:50:08.227Z,7.55
2022-08-10T00:52:36.868Z,7.32
2022-08-10T00:55:11.769Z,7.07
2022-08-10T00:57:40.019Z,6.85
2022-08-10T01:00:09.681Z,6.78
2022-08-10T01:02:36.999Z,6.80
2022-08-10T01:05:09.042Z,6.70
2022-08-10T01:08:02.665Z,6.80
2022-08-10T01:10:43.426Z,6.82
2022-08-10T01:13:25.492Z,6.65
2022-08-10T01:16:24.318Z,6.78
2022-08-10T01:19:31.673Z,6.20
2022-08-10T01:22:53.428Z,6.63
2022-08-10T01:26:11.989Z,6.70
2022-08-10T01:29:34.490Z,6.38
2022-08-10T01:32:07.224Z,6.18
2022-08-10T01:34:51.084Z,6.18
2022-08-10T01:37:23.399Z,6.90
2022-08-10T01:39:57.553Z,6.47
2022-08-10T01:42:31.149Z,6.78
2022-08-10T01:45:04.238Z,7.45
2022-08-10T01:48:01.609Z,7.30
2022-08-10T01:50:59.303Z,7.28
2022-08-10T01:53:41.268Z,7.05
2022-08-10T01:56:13.451Z,8.02
2022-08-10T01:58:44.422Z,7.55
2022-08-10T02:01:23.672Z,8.38
2022-08-10T02:04:08.705Z,8.40
2022-08-10T02:06:50.508Z,8.20
2022-08-10T02:09:37.034Z,8.02
2022-08-10T02:12:08.952Z,7.68
2022-08-10T02:14:44.001Z,7.05
2022-08-10T02:17:59.357Z,8.20
2022-08-10T02:20:26.226Z,8.52
2022-08-10T02:23:10.073Z,7.80
2022-08-10T02:25:44.203Z,7.70
2022-08-10T02:28:29.800Z,7.68
2022-08-10T02:31:30.521Z,7.32
2022-08-10T02:33:59.811Z,8.38
2022-08-10T02:36:34.664Z,8.55
2022-08-10T02:39:07.709Z,10.80
2022-08-10T02:45:22.325Z,10.20
2022-08-10T02:45:31.656Z,9.93
2022-08-10T02:48:29.317Z,8.98
2022-08-10T02:51:02.247Z,9.35
2022-08-10T02:53:55.408Z,10.40
2022-08-10T02:56:49.479Z,10.27
2022-08-10T02:59:25.178Z,10.70
2022-08-10T03:02:07.194Z,10.35
2022-08-10T03:04:55.378Z,11.05
2022-08-10T03:07:43.722Z,11.23
2022-08-10T03:10:18.003Z,11.07
2022-08-10T03:13:01.561Z,10.52
2022-08-10T03:15:33.032Z,11.30
2022-08-10T03:18:01.306Z,10.70
2022-08-10T03:20:39.741Z,11.18
2022-08-10T03:23:24.285Z,10.65
2022-08-10T03:28:45.787Z,10.13
2022-08-10T03:31:13.433Z,10.05
2022-08-10T03:33:43.952Z,10.07
2022-08-10T03:36:42.492Z,10.40
2022-08-10T03:39:07.552Z,10.48
2022-08-10T03:41:53.483Z,10.65
2022-08-10T03:44:27.883Z,10.02
2022-08-10T03:47:02.433Z,9.50
2022-08-10T03:49:31.499Z,10.20
2022-08-10T03:52:07.114Z,10.57
2022-08-10T03:54:35.550Z,10.50
2022-08-10T03:57:15.102Z,9.80
2022-08-10T03:59:54.609Z,10.13
2022-08-10T04:02:46.823Z,9.70
2022-08-10T04:05:16.179Z,9.90
2022-08-10T04:07:51.653Z,10.15
2022-08-10T04:10:18.934Z,9.18
2022-08-10T04:12:46.932Z,9.20
2022-08-10T04:15:18.237Z,9.32
2022-08-10T04:18:05.067Z,9.43
2022-08-10T04:20:41.271Z,9.50
2022-08-10T04:23:25.582Z,9.95
2022-08-10T04:25:53.718Z,10.65
2022-08-10T04:28:20.950Z,10.82
2022-08-10T04:30:50.566Z,14.07
2022-08-10T04:33:21.200Z,9.85
2022-08-10T04:35:54.400Z,9.95
2022-08-10T04:38:22.684Z,9.77
2022-08-10T04:40:58.708Z,10.30
2022-08-10T04:43:31.905Z,9.48
2022-08-10T04:46:08.876Z,13.48
2022-08-10T04:49:01.576Z,10.00
2022-08-10T04:51:36.237Z,8.93
2022-08-10T04:54:15.923Z,10.50
2022-08-10T04:56:46.175Z,10.13
2022-08-10T04:59:14.275Z,10.80
2022-08-10T05:02:22.109Z,10.80
2022-08-10T05:04:34.974Z,10.25
2022-08-10T05:07:18.555Z,10.80
2022-08-10T05:10:02.781Z,10.63
2022-08-10T05:12:42.455Z,11.43
2022-08-10T05:15:12.970Z,11.10
2022-08-10T05:18:09.668Z,11.27
2022-08-10T05:20:37.398Z,11.15
2022-08-10T05:23:04.826Z,12.10
2022-08-10T05:25:32.478Z,12.50
2022-08-10T05:28:05.691Z,14.20
2022-08-10T05:30:40.377Z,15.23
2022-08-10T05:33:08.964Z,16.42
2022-08-10T05:35:55.501Z,16.17
2022-08-10T05:38:32.760Z,14.13
2022-08-10T05:41:01.320Z,13.45
2022-08-10T05:43:34.678Z,13.43
2022-08-10T05:46:20.000Z,12.98
2022-08-10T05:48:59.489Z,12.10
2022-08-10T05:51:29.191Z,10.90
2022-08-10T05:54:16.823Z,11.40
2022-08-10T05:56:55.937Z,11.40
2022-08-10T06:00:10.869Z,12.32
2022-08-10T06:02:47.155Z,12.35
2022-08-10T06:05:30.056Z,11.73
2022-08-10T06:08:12.263Z,12.18
2022-08-10T06:12:24.504Z,10.85
2022-08-10T06:14:18.349Z,11.07
2022-08-10T06:16:55.797Z,11.07
2022-08-10T06:19:25.661Z,12.38
2022-08-10T06:22:02.185Z,11.90
2022-08-10T06:24:57.281Z,10.75
2022-08-10T06:27:39.767Z,11.23
2022-08-10T06:30:19.862Z,11.93
2022-08-10T06:32:53.025Z,11.52
2022-08-10T06:35:21.181Z,11.30
2022-08-10T06:37:51.670Z,10.90
2022-08-10T06:40:21.001Z,10.82
2022-08-10T06:42:56.510Z,10.02
2022-08-10T06:45:30.357Z,11.45
2022-08-10T06:50:58.313Z,10.70
2022-08-10T06:53:52.898Z,10.38
2022-08-10T06:56:50.888Z,9.85
2022-08-10T06:59:49.782Z,9.98
2022-08-10T07:03:08.034Z,8.80
2022-08-10T07:05:41.099Z,8.07
2022-08-10T07:08:44.255Z,8.27
2022-08-10T07:11:22.393Z,8.35
2022-08-10T07:14:15.317Z,8.07
2022-08-10T07:16:46.767Z,7.57
2022-08-10T07:19:15.398Z,7.78
2022-08-10T07:21:46.931Z,7.47
2022-08-10T07:24:17.720Z,7.43
2022-08-10T07:26:53.518Z,7.15
2022-08-10T07:29:53.905Z,8.00
2022-08-10T07:32:19.659Z,7.10
2022-08-10T07:34:49.709Z,6.53
2022-08-10T07:37:26.957Z,5.60
2022-08-10T07:40:05.026Z,5.25
2022-08-10T07:42:42.086Z,5.70
2022-08-10T07:45:32.029Z,5.75
2022-08-10T07:48:32.334Z,6.10
2022-08-10T07:51:16.714Z,5.10
2022-08-10T07:53:48.422Z,4.80
2022-08-10T07:56:48.483Z,5.63
2022-08-10T07:59:20.766Z,4.88
2022-08-10T08:01:52.210Z,5.07
2022-08-10T08:04:24.354Z,6.10
2022-08-10T08:06:53.941Z,5.13
2022-08-10T08:09:22.350Z,5.07
2022-08-10T08:11:53.562Z,5.15
2022-08-10T08:14:23.094Z,5.20
2022-08-10T08:16:54.252Z,4.85
2022-08-10T08:19:26.838Z,4.40
2022-08-10T08:24:04.926Z,4.75
2022-08-10T08:24:47.153Z,4.90
2022-08-10T08:27:37.382Z,4.68
2022-08-10T08:30:09.914Z,4.80
2022-08-10T08:32:44.308Z,4.25
2022-08-10T08:35:15.987Z,4.28
2022-08-10T08:38:32.043Z,4.20
2022-08-10T08:41:04.192Z,4.50
2022-08-10T08:43:50.482Z,4.20
2022-08-10T08:46:35.090Z,4.10
2022-08-10T08:50:05.104Z,4.13
2022-08-10T08:52:41.135Z,3.72
2022-08-10T08:56:03.807Z,3.97
2022-08-10T08:58:48.021Z,4.63
2022-08-10T09:01:36.699Z,3.88
2022-08-10T09:04:44.844Z,4.50
2022-08-10T09:08:00.852Z,3.83
2022-08-10T09:11:05.419Z,4.10
2022-08-10T09:13:57.713Z,3.92
2022-08-10T09:16:52.076Z,4.57
2022-08-10T09:19:37.836Z,4.70
2022-08-10T09:22:19.358Z,4.57
2022-08-10T09:25:21.334Z,4.32
2022-08-10T09:28:04.133Z,4.38
2022-08-10T09:31:18.519Z,4.57
2022-08-10T09:36:20.904Z,4.28
2022-08-10T09:38:01.176Z,4.07
2022-08-10T09:41:05.093Z,4.85
2022-08-10T09:44:00.762Z,4.28
2022-08-10T09:46:52.208Z,4.30
2022-08-10T09:49:56.342Z,4.45
2022-08-10T09:52:58.892Z,3.90
2022-08-10T09:56:18.118Z,3.50
2022-08-10T10:00:01.739Z,3.17
2022-08-10T10:02:58.288Z,3.40
2022-08-10T10:05:31.211Z,3.05
2022-08-10T10:08:43.270Z,3.30
2022-08-10T10:11:22.360Z,3.10
2022-08-10T10:14:28.008Z,3.20
2022-08-10T10:17:36.345Z,3.35
2022-08-10T10:20:15.939Z,3.35
2022-08-10T10:23:01.670Z,3.38
2022-08-10T10:26:15.894Z,3.10
2022-08-10T10:29:24.702Z,4.35
2022-08-10T10:32:07.390Z,3.50
2022-08-10T10:34:50.774Z,3.38
2022-08-10T10:38:01.920Z,3.40
2022-08-10T10:40:21.547Z,3.88
2022-08-10T10:43:10.710Z,3.45
2022-08-10T10:46:13.485Z,3.45
2022-08-10T10:49:01.787Z,3.50
2022-08-10T10:51:55.913Z,3.00
2022-08-10T10:54:55.705Z,3.42
2022-08-10T10:57:59.056Z,3.00
2022-08-10T11:01:21.006Z,3.45
2022-08-10T11:04:09.314Z,3.00
2022-08-10T11:07:30.976Z,2.72
2022-08-10T11:10:32.025Z,2.67
2022-08-10T11:14:23.103Z,2.72
2022-08-10T11:16:26.362Z,2.90
2022-08-10T11:19:13.602Z,2.43
2022-08-10T11:22:05.881Z,3.00
2022-08-10T11:25:00.377Z,2.42
2022-08-10T11:31:20.270Z,2.00
2022-08-10T11:34:11.668Z,2.20
2022-08-10T11:36:53.905Z,2.30
2022-08-10T11:39:49.657Z,2.40
2022-08-10T11:45:29.367Z,2.83
2022-08-10T11:48:53.038Z,2.30
2022-08-10T11:52:16.967Z,2.28
2022-08-10T11:54:58.862Z,2.55
2022-08-10T11:57:54.093Z,2.40
2022-08-10T12:00:20.507Z,2.40
2022-08-10T12:03:07.746Z,2.10
2022-08-10T12:05:51.873Z,2.00
2022-08-10T12:10:02.626Z,2.50
2022-08-10T12:11:25.248Z,1.98
2022-08-10T12:14:24.805Z,2.50
2022-08-10T12:17:30.089Z,2.10
2022-08-10T12:20:23.868Z,2.45
2022-08-10T12:23:02.485Z,2.22
2022-08-10T12:25:58.933Z,2.63
2022-08-10T12:28:50.885Z,2.10
2022-08-10T12:31:43.830Z,2.10
2022-08-10T12:34:19.769Z,2.47
2022-08-10T12:37:18.219Z,2.13
2022-08-10T12:40:36.316Z,2.60
2022-08-10T12:44:04.685Z,2.58
2022-08-10T12:46:51.371Z,2.60
2022-08-10T12:50:29.849Z,2.50
2022-08-10T12:53:15.355Z,2.85
2022-08-10T12:55:45.768Z,2.60
2022-08-10T12:58:59.244Z,2.35
2022-08-10T13:01:17.351Z,2.60
2022-08-10T13:04:20.821Z,2.30
2022-08-10T13:06:53.563Z,2.42
2022-08-10T13:09:25.380Z,2.45
2022-08-10T13:12:35.042Z,2.80
2022-08-10T13:15:45.424Z,2.45
2022-08-10T13:18:18.702Z,10.48
2022-08-10T13:20:53.861Z,3.75
2022-08-10T13:23:32.118Z,2.70
2022-08-10T13:26:04.289Z,2.33
2022-08-10T13:28:49.652Z,2.28
2022-08-10T13:31:35.708Z,2.13
2022-08-10T13:34:43.027Z,2.10
2022-08-10T13:37:26.841Z,2.33
2022-08-10T13:40:00.436Z,2.33
2022-08-10T13:42:34.267Z,2.28
2022-08-10T13:47:48.987Z,2.38
2022-08-10T13:50:35.475Z,2.28
2022-08-10T13:53:14.840Z,2.30
2022-08-10T13:55:57.353Z,2.25
2022-08-10T13:58:37.907Z,2.50
2022-08-10T14:01:17.653Z,2.30
2022-08-10T14:03:46.231Z,2.60
2022-08-10T14:06:15.695Z,2.28
2022-08-10T14:08:50.601Z,2.17
2022-08-10T14:11:20.606Z,2.10
2022-08-10T14:14:04.060Z,3.22
2022-08-10T14:16:42.789Z,2.88
2022-08-10T14:19:33.065Z,2.05
2022-08-10T14:22:09.492Z,2.53
2022-08-10T14:24:38.578Z,2.40
2022-08-10T14:27:09.280Z,2.30
2022-08-10T14:30:00.871Z,2.10
2022-08-10T14:32:44.118Z,2.30
2022-08-10T14:36:18.995Z,2.20
2022-08-10T14:38:09.794Z,2.15
2022-08-10T14:40:44.169Z,2.15
2022-08-10T14:43:28.561Z,2.50
2022-08-10T14:46:05.756Z,2.40
2022-08-10T14:48:45.515Z,2.35
2022-08-10T14:51:26.252Z,4.50
2022-08-10T14:54:01.972Z,1.80
2022-08-10T14:56:36.799Z,1.92
2022-08-10T15:02:01.423Z,1.90
2022-08-10T15:04:34.506Z,1.80
2022-08-10T15:07:12.788Z,1.70
2022-08-10T15:10:00.688Z,2.13
2022-08-10T15:12:34.759Z,1.90
2022-08-10T15:15:09.917Z,1.73
2022-08-10T15:17:43.314Z,1.70
2022-08-10T15:22:55.508Z,2.13
2022-08-10T15:25:25.996Z,1.90
2022-08-10T15:28:05.598Z,2.10
2022-08-10T15:30:55.685Z,2.05
2022-08-10T15:34:04.490Z,2.00
2022-08-10T15:37:02.499Z,1.95
2022-08-10T15:40:24.543Z,1.75
2022-08-10T15:43:25.277Z,1.77
2022-08-10T15:45:58.516Z,2.20
2022-08-10T15:48:58.879Z,2.67
2022-08-10T15:51:53.645Z,2.10
2022-08-10T15:54:54.475Z,1.88
2022-08-10T15:57:28.093Z,2.22
2022-08-10T16:00:08.374Z,2.10
2022-08-10T16:02:52.351Z,1.98
2022-08-10T16:06:01.972Z,2.40
2022-08-10T16:10:22.902Z,2.50
2022-08-10T16:11:59.109Z,2.45
2022-08-10T16:14:31.551Z,1.95
2022-08-10T16:17:01.649Z,1.90
2022-08-10T16:19:30.735Z,2.10
2022-08-10T16:22:37.156Z,1.90
2022-08-10T16:24:56.370Z,1.98
2022-08-10T16:27:33.295Z,1.95
2022-08-10T16:30:07.732Z,1.70
2022-08-10T16:32:50.310Z,2.15
2022-08-10T16:35:20.310Z,2.00
2022-08-10T16:37:58.227Z,2.08
2022-08-10T16:40:29.581Z,1.77
2022-08-10T16:43:00.188Z,1.88
2022-08-10T16:45:51.296Z,1.90
2022-08-10T16:48:48.664Z,1.90
2022-08-10T16:51:17.584Z,1.55
2022-08-10T16:54:02.010Z,1.90
2022-08-10T16:56:48.470Z,1.70
2022-08-10T16:59:20.763Z,1.52
2022-08-10T17:02:20.262Z,1.98
2022-08-10T17:05:00.955Z,1.60
2022-08-10T17:08:12.891Z,1.52
2022-08-10T17:10:42.698Z,1.48
2022-08-10T17:13:38.806Z,1.88
2022-08-10T17:16:17.805Z,1.73
2022-08-10T17:18:55.083Z,1.60
2022-08-10T17:21:31.150Z,1.60
2022-08-10T17:24:08.106Z,1.50
2022-08-10T17:26:38.278Z,1.75
2022-08-10T17:29:57.254Z,1.50
2022-08-10T17:32:46.146Z,1.40
2022-08-10T17:35:22.504Z,1.58
2022-08-10T17:38:10.308Z,1.40
2022-08-10T17:41:06.938Z,1.77
2022-08-10T17:43:46.387Z,1.52
2022-08-10T17:46:31.317Z,1.52
2022-08-10T17:49:19.675Z,1.63
2022-08-10T17:51:58.317Z,1.60
2022-08-10T17:55:09.020Z,1.92
2022-08-10T17:57:47.420Z,1.85
2022-08-10T18:00:41.722Z,1.95
2022-08-10T18:03:29.821Z,1.95
2022-08-10T18:06:06.164Z,2.08
2022-08-10T18:09:03.380Z,2.28
2022-08-10T18:11:35.026Z,2.53
2022-08-10T18:14:24.275Z,2.58
2022-08-10T18:16:55.043Z,2.80
2022-08-10T18:19:30.627Z,2.80
2022-08-10T18:21:59.278Z,2.40
2022-08-10T18:24:56.449Z,2.70
2022-08-10T18:27:46.524Z,2.63
2022-08-10T18:30:30.563Z,2.65
2022-08-10T18:33:19.012Z,2.60
2022-08-10T18:35:48.367Z,2.55
2022-08-10T18:38:26.877Z,2.60
2022-08-10T18:41:16.123Z,3.00
2022-08-10T18:44:19.359Z,3.50
2022-08-10T18:47:16.442Z,3.65
2022-08-10T18:50:05.939Z,4.30
2022-08-10T18:52:36.101Z,4.78
2022-08-10T18:55:13.937Z,4.38
2022-08-10T18:58:27.039Z,4.22
2022-08-10T19:01:32.967Z,4.88
2022-08-10T19:04:28.014Z,5.65
2022-08-10T19:07:32.241Z,3.92
2022-08-10T19:10:21.049Z,2.70
2022-08-10T19:13:17.709Z,3.63
2022-08-10T19:16:10.765Z,5.00
2022-08-10T19:19:21.787Z,5.57
2022-08-10T19:22:29.239Z,6.72
2022-08-10T19:26:42.996Z,8.25
2022-08-10T19:28:30.286Z,9.75
2022-08-10T19:31:15.376Z,7.97
2022-08-10T19:34:24.368Z,5.88
2022-08-10T19:37:03.267Z,6.97
2022-08-10T19:40:12.408Z,3.90
2022-08-10T19:42:55.980Z,3.30
2022-08-10T19:46:01.164Z,4.10
2022-08-10T19:49:00.269Z,4.95
2022-08-10T19:51:37.488Z,4.75
2022-08-10T19:54:46.410Z,6.43
2022-08-10T19:58:04.628Z,3.08
2022-08-10T20:00:47.190Z,3.30
2022-08-10T20:03:37.100Z,3.72
2022-08-10T20:06:42.643Z,3.35
2022-08-10T20:09:39.009Z,3.03
2022-08-10T20:12:10.590Z,3.70
2022-08-10T20:15:17.059Z,3.70
2022-08-10T20:18:02.253Z,3.63
2022-08-10T20:20:48.757Z,4.40
2022-08-10T20:23:33.767Z,6.90
2022-08-10T20:26:32.713Z,5.35
2022-08-10T20:29:16.107Z,4.35
2022-08-10T20:32:15.511Z,4.50
2022-08-10T20:34:48.074Z,3.90
2022-08-10T20:41:09.213Z,3.75
2022-08-10T20:46:27.729Z,4.30
2022-08-10T20:49:32.462Z,4.28
2022-08-10T20:52:03.358Z,3.97
2022-08-10T20:54:51.519Z,7.72
2022-08-10T20:58:04.626Z,4.28
2022-08-10T21:00:36.178Z,3.58
2022-08-10T21:03:09.077Z,3.25
2022-08-10T21:06:27.356Z,3.75
2022-08-10T21:09:33.189Z,3.60
2022-08-10T21:12:44.761Z,3.40
2022-08-10T21:15:43.850Z,3.10
2022-08-10T21:18:44.659Z,3.45
2022-08-10T21:21:37.751Z,3.00
2022-08-10T21:24:21.268Z,3.55
2022-08-10T21:27:49.684Z,3.92
2022-08-10T21:31:02.574Z,5.32
2022-08-10T21:33:49.126Z,16.45
2022-08-10T21:36:35.437Z,7.75
2022-08-10T21:39:22.381Z,6.20
2022-08-10T21:42:57.664Z,4.30
2022-08-10T21:46:18.015Z,4.63
2022-08-10T21:49:15.194Z,4.80
2022-08-10T21:52:20.775Z,4.70
2022-08-10T21:55:22.085Z,4.20
2022-08-10T21:59:00.870Z,4.78
2022-08-10T22:02:10.089Z,4.78
2022-08-10T22:05:26.026Z,3.97
2022-08-10T22:08:37.237Z,4.18
2022-08-10T22:11:30.117Z,3.80
2022-08-10T22:14:51.763Z,3.85
2022-08-10T22:18:03.163Z,3.88
2022-08-10T22:21:45.905Z,4.13
2022-08-10T22:25:16.559Z,4.07
2022-08-10T22:28:17.681Z,4.70
2022-08-10T22:31:32.729Z,4.50
2022-08-10T22:34:39.372Z,5.13
2022-08-10T22:37:40.023Z,4.60
2022-08-10T22:40:36.614Z,4.68
2022-08-10T22:43:51.027Z,4.78
2022-08-10T22:46:53.158Z,4.80
2022-08-10T22:49:25.937Z,4.32
2022-08-10T22:52:14.400Z,4.10
2022-08-10T22:58:25.739Z,4.90
2022-08-10T23:01:05.218Z,5.55
2022-08-10T23:03:38.836Z,5.95
2022-08-10T23:06:17.313Z,5.50
2022-08-10T23:09:00.228Z,5.25
2022-08-10T23:11:30.273Z,4.65
2022-08-10T23:14:34.163Z,4.43
2022-08-10T23:17:21.887Z,5.07
2022-08-10T23:20:13.606Z,5.07
2022-08-10T23:22:49.099Z,4.90
2022-08-10T23:25:30.309Z,4.20
2022-08-10T23:28:12.312Z,5.28
2022-08-10T23:30:51.550Z,7.22
2022-08-10T23:33:37.606Z,4.55
2022-08-10T23:36:34.268Z,10.27
2022-08-10T23:39:24.467Z,9.30
2022-08-10T23:42:20.735Z,4.72
2022-08-10T23:44:56.378Z,4.78
2022-08-10T23:47:55.234Z,4.50
2022-08-10T23:50:25.336Z,4.68
2022-08-10T23:53:00.658Z,4.85
2022-08-10T23:55:33.913Z,4.68
2022-08-10T23:58:31.610Z,4.78
